Time;durP1;ratioP1;P1;durP2;ratioP2;P2;SDS_P1;SDS_P2;PMS_P1;PMS_P2;Temp;Humidity;BMP_temperature;BMP_pressure;BME280_temperature;BME280_humidity;BME280_pressure;Samples;Min_cycle;Max_cycle;Signal;HPM_P1;HPM_P2
2021/10/21 00:01:43;;;;;;;2.05;1.25;;;12.20;99.90;;;;;;5001304;28;20039;-66
2021/10/21 00:04:10;;;;;;;5.35;1.67;;;12.20;99.90;;;;;;5001706;28;20049;-67
2021/10/21 00:06:37;;;;;;;5.35;2.10;;;12.20;99.90;;;;;;5001339;28;20077;-67
2021/10/21 00:09:04;;;;;;;7.72;2.53;;;12.20;99.90;;;;;;5002331;28;20046;-68
2021/10/21 00:11:33;;;;;;;3.88;1.88;;;12.20;99.90;;;;;;5004324;28;20045;-67
2021/10/21 00:14:01;;;;;;;6.53;2.50;;;12.20;99.90;;;;;;4993280;28;20057;-67
2021/10/21 00:16:28;;;;;;;3.72;2.42;;;12.10;99.90;;;;;;5008209;28;20415;-67
2021/10/21 00:18:55;;;;;;;2.67;2.30;;;12.10;99.90;;;;;;5000803;28;20156;-68
2021/10/21 00:21:23;;;;;;;4.07;2.95;;;12.00;99.90;;;;;;5009475;28;20758;-67
2021/10/21 00:23:50;;;;;;;9.48;2.50;;;12.00;99.90;;;;;;5000773;28;20467;-68
2021/10/21 00:26:17;;;;;;;5.40;1.95;;;12.00;99.90;;;;;;5004041;28;20077;-68
2021/10/21 00:28:44;;;;;;;3.40;2.20;;;12.00;99.90;;;;;;5005663;28;20368;-70
2021/10/21 00:31:12;;;;;;;5.13;2.17;;;12.00;99.90;;;;;;4997902;28;20077;-68
2021/10/21 00:33:39;;;;;;;2.08;1.83;;;12.00;99.90;;;;;;4995580;28;20043;-69
2021/10/21 00:36:06;;;;;;;3.83;2.20;;;12.00;99.90;;;;;;5001615;28;20058;-67
2021/10/21 00:38:33;;;;;;;2.50;1.40;;;12.00;99.90;;;;;;5009563;28;20049;-67
2021/10/21 00:41:00;;;;;;;2.67;1.50;;;11.90;99.90;;;;;;5003140;28;20038;-68
2021/10/21 00:43:37;;;;;;;2.53;1.45;;;12.00;99.90;;;;;;5006028;28;20506;-67
2021/10/21 00:46:06;;;;;;;3.25;2.15;;;11.90;99.90;;;;;;5003413;28;20112;-67
2021/10/21 00:48:35;;;;;;;4.00;2.22;;;12.00;99.90;;;;;;4991364;28;20050;-71
2021/10/21 00:51:06;;;;;;;3.50;1.42;;;12.00;99.90;;;;;;5002244;28;20056;-67
2021/10/21 00:53:34;;;;;;;4.45;1.73;;;12.00;99.90;;;;;;5004491;28;20467;-68
2021/10/21 00:56:03;;;;;;;3.97;1.48;;;12.00;99.90;;;;;;5003061;28;20543;-68
2021/10/21 00:58:32;;;;;;;3.53;1.60;;;12.00;99.90;;;;;;5004900;28;20050;-67
2021/10/21 01:00:59;;;;;;;3.40;2.80;;;12.00;99.90;;;;;;5005434;28;20363;-67
2021/10/21 01:03:27;;;;;;;4.60;3.60;;;12.00;99.90;;;;;;5004803;28;20093;-68
2021/10/21 01:05:54;;;;;;;6.40;3.88;;;12.00;99.90;;;;;;4997141;28;20539;-68
2021/10/21 01:08:21;;;;;;;8.20;5.63;;;12.00;99.90;;;;;;4998250;28;20422;-70
2021/10/21 01:10:49;;;;;;;9.68;6.05;;;12.00;99.90;;;;;;5001832;28;20088;-67
2021/10/21 01:13:16;;;;;;;16.08;8.00;;;12.00;99.90;;;;;;5002127;28;20478;-71
2021/10/21 01:15:43;;;;;;;14.90;8.27;;;11.90;99.90;;;;;;4998793;28;20046;-67
2021/10/21 01:18:10;;;;;;;11.82;7.38;;;11.80;99.90;;;;;;5002968;28;20054;-66
2021/10/21 01:20:37;;;;;;;12.02;8.25;;;11.80;99.90;;;;;;5005419;28;20049;-68
2021/10/21 01:23:04;;;;;;;11.30;7.32;;;11.80;99.90;;;;;;4996290;28;20397;-71
2021/10/21 01:25:31;;;;;;;7.05;5.72;;;11.70;99.90;;;;;;5000176;28;20091;-67
2021/10/21 01:27:58;;;;;;;5.07;4.57;;;11.70;99.90;;;;;;5006072;28;20100;-67
2021/10/21 01:30:26;;;;;;;4.80;4.28;;;11.70;99.90;;;;;;5005025;28;20065;-68
2021/10/21 01:32:58;;;;;;;8.13;4.93;;;11.70;99.90;;;;;;4997980;28;20042;-66
2021/10/21 01:35:25;;;;;;;11.50;4.28;;;11.80;99.90;;;;;;5006227;28;20069;-69
2021/10/21 01:37:52;;;;;;;5.97;4.32;;;11.80;99.90;;;;;;5004412;28;20053;-72
2021/10/21 01:40:20;;;;;;;8.77;4.30;;;11.80;99.90;;;;;;5008452;28;20069;-66
2021/10/21 01:42:47;;;;;;;8.43;4.38;;;11.80;99.90;;;;;;4999185;28;20175;-68
2021/10/21 01:45:20;;;;;;;6.60;4.68;;;11.80;99.90;;;;;;5004313;28;20111;-67
2021/10/21 01:47:47;;;;;;;5.15;4.60;;;11.80;99.90;;;;;;5003281;28;20492;-65
2021/10/21 01:50:15;;;;;;;5.75;3.42;;;11.80;99.90;;;;;;5001560;28;20136;-67
2021/10/21 01:52:42;;;;;;;6.30;4.10;;;11.80;99.90;;;;;;5001044;28;20074;-73
2021/10/21 01:55:10;;;;;;;4.68;4.20;;;11.80;99.90;;;;;;5002281;28;20147;-66
2021/10/21 01:57:37;;;;;;;7.63;5.05;;;11.80;99.90;;;;;;5001511;28;20049;-67
2021/10/21 02:00:07;;;;;;;5.28;4.22;;;11.80;99.90;;;;;;4999886;28;20061;-68
2021/10/21 02:02:37;;;;;;;4.60;4.15;;;11.80;99.90;;;;;;4999065;28;20049;-67
2021/10/21 02:05:05;;;;;;;10.60;5.00;;;11.80;99.90;;;;;;4999527;28;20096;-69
2021/10/21 02:07:33;;;;;;;10.25;5.18;;;11.80;99.90;;;;;;5002045;28;20049;-68
2021/10/21 02:10:00;;;;;;;9.98;5.90;;;11.80;99.90;;;;;;5003779;28;20050;-68
2021/10/21 02:12:27;;;;;;;9.20;6.25;;;11.70;99.90;;;;;;5005144;28;20060;-66
2021/10/21 02:14:54;;;;;;;9.98;6.60;;;11.70;99.90;;;;;;4997845;28;20088;-67
2021/10/21 02:17:22;;;;;;;11.88;7.18;;;11.70;99.90;;;;;;5005418;28;20073;-69
2021/10/21 02:19:50;;;;;;;10.35;7.18;;;11.60;99.90;;;;;;5003869;28;20073;-68
2021/10/21 02:22:17;;;;;;;14.70;8.82;;;11.60;99.90;;;;;;4986366;28;20549;-68
2021/10/21 02:24:44;;;;;;;12.38;7.60;;;11.60;99.90;;;;;;4997027;28;20118;-68
2021/10/21 02:27:11;;;;;;;10.25;6.90;;;11.60;99.90;;;;;;5002879;28;20553;-67
2021/10/21 02:29:38;;;;;;;14.45;8.32;;;11.60;99.90;;;;;;4982630;28;20504;-67
2021/10/21 02:32:05;;;;;;;10.32;8.05;;;11.60;99.90;;;;;;5001440;28;20069;-69
2021/10/21 02:34:32;;;;;;;15.77;9.85;;;11.60;99.90;;;;;;5000590;28;20112;-72
2021/10/21 02:36:59;;;;;;;16.17;8.27;;;11.60;99.90;;;;;;5002767;28;20138;-67
2021/10/21 02:39:26;;;;;;;11.55;8.20;;;11.50;99.90;;;;;;4999740;28;20708;-67
2021/10/21 02:41:53;;;;;;;9.68;8.15;;;11.50;99.90;;;;;;5008244;28;20105;-68
2021/10/21 02:44:20;;;;;;;16.85;9.43;;;11.50;99.90;;;;;;5011251;28;20080;-69
2021/10/21 02:46:47;;;;;;;13.60;9.57;;;11.40;99.90;;;;;;5003904;28;20076;-67
2021/10/21 02:49:14;;;;;;;9.45;8.32;;;11.50;99.90;;;;;;5000832;28;20081;-68
2021/10/21 02:51:41;;;;;;;14.80;7.95;;;11.50;99.90;;;;;;5005157;28;20057;-67
2021/10/21 02:54:08;;;;;;;14.77;7.90;;;11.50;99.90;;;;;;5004024;28;20525;-69
2021/10/21 02:56:35;;;;;;;12.32;7.63;;;11.50;99.90;;;;;;4998799;28;20058;-67
2021/10/21 02:59:02;;;;;;;11.50;7.55;;;11.50;99.90;;;;;;5003322;28;20104;-70
2021/10/21 03:01:29;;;;;;;13.10;6.90;;;11.50;99.90;;;;;;5006015;28;20136;-68
2021/10/21 03:03:58;;;;;;;14.10;7.68;;;11.50;99.90;;;;;;5005047;28;20050;-68
2021/10/21 03:06:25;;;;;;;12.18;7.22;;;11.50;99.90;;;;;;5002225;28;20081;-68
2021/10/21 03:08:52;;;;;;;15.70;7.82;;;11.50;99.90;;;;;;5004381;28;20508;-72
2021/10/21 03:11:19;;;;;;;18.80;7.80;;;11.50;99.90;;;;;;5004748;28;20499;-70
2021/10/21 03:13:46;;;;;;;12.63;8.50;;;11.50;99.90;;;;;;5003726;28;20070;-70
2021/10/21 03:16:12;;;;;;;12.07;8.68;;;11.40;99.90;;;;;;5004935;28;20069;-68
2021/10/21 03:18:39;;;;;;;17.98;7.43;;;11.40;99.90;;;;;;5000418;28;20085;-68
2021/10/21 03:21:06;;;;;;;13.48;8.10;;;11.40;99.90;;;;;;5004231;28;20038;-69
2021/10/21 03:23:33;;;;;;;15.27;8.52;;;11.40;99.90;;;;;;5006720;28;20096;-69
2021/10/21 03:26:00;;;;;;;15.60;8.65;;;11.40;99.90;;;;;;5003801;28;20066;-66
2021/10/21 03:28:27;;;;;;;21.88;8.93;;;11.40;99.90;;;;;;5013132;28;20081;-68
2021/10/21 03:30:54;;;;;;;19.35;8.23;;;11.40;99.90;;;;;;5002902;28;20073;-67
2021/10/21 03:33:22;;;;;;;11.13;8.45;;;11.40;99.90;;;;;;5005727;28;20525;-69
2021/10/21 03:35:48;;;;;;;13.63;7.32;;;11.50;99.90;;;;;;5006873;28;20077;-69
2021/10/21 03:38:15;;;;;;;17.05;7.38;;;11.40;99.90;;;;;;5003558;28;20085;-69
2021/10/21 03:40:42;;;;;;;11.77;6.68;;;11.40;99.90;;;;;;4997700;28;20068;-67
2021/10/21 03:43:09;;;;;;;18.45;7.18;;;11.40;99.90;;;;;;5004860;28;20046;-69
2021/10/21 03:45:41;;;;;;;14.52;6.65;;;11.40;99.90;;;;;;5004036;28;20066;-67
2021/10/21 03:48:08;;;;;;;9.10;6.07;;;11.40;99.90;;;;;;5001344;28;20124;-71
2021/10/21 03:50:35;;;;;;;12.25;4.68;;;11.30;99.90;;;;;;5002940;28;20377;-68
2021/10/21 03:53:02;;;;;;;12.00;4.90;;;11.30;99.90;;;;;;5006554;28;20077;-70
2021/10/21 03:55:29;;;;;;;7.63;4.05;;;11.30;99.90;;;;;;5004056;28;20474;-69
2021/10/21 03:57:56;;;;;;;6.63;3.70;;;11.30;99.90;;;;;;5005938;28;20550;-67
2021/10/21 04:00:28;;;;;;;8.63;3.47;;;11.30;99.90;;;;;;5005867;28;20149;-68
2021/10/21 04:02:55;;;;;;;9.95;4.60;;;11.20;99.90;;;;;;4993340;28;20054;-67
2021/10/21 04:05:23;;;;;;;5.40;2.75;;;11.20;99.90;;;;;;5003573;28;20141;-68
2021/10/21 04:07:51;;;;;;;7.15;2.85;;;11.20;99.90;;;;;;5002832;28;20104;-70
2021/10/21 04:10:18;;;;;;;15.23;4.28;;;11.20;99.90;;;;;;5005491;28;20579;-68
2021/10/21 04:12:45;;;;;;;5.60;2.47;;;11.20;99.90;;;;;;5007217;28;20061;-67
2021/10/21 04:15:13;;;;;;;9.00;3.78;;;11.20;99.90;;;;;;5003615;28;20073;-68
2021/10/21 04:17:39;;;;;;;7.35;2.53;;;11.20;99.90;;;;;;5002341;28;20073;-67
2021/10/21 04:20:07;;;;;;;8.32;4.47;;;11.20;99.90;;;;;;5003319;28;20069;-67
2021/10/21 04:22:34;;;;;;;5.10;2.55;;;11.10;99.90;;;;;;5000719;28;20046;-67
2021/10/21 04:25:01;;;;;;;13.60;3.05;;;11.10;99.90;;;;;;5004030;28;20074;-68
2021/10/21 04:27:28;;;;;;;4.45;2.80;;;11.10;99.90;;;;;;5005451;28;20053;-69
2021/10/21 04:29:55;;;;;;;5.72;2.10;;;11.00;99.90;;;;;;5003341;28;20140;-67
2021/10/21 04:32:22;;;;;;;3.90;2.63;;;11.00;99.90;;;;;;5004538;28;20056;-69
2021/10/21 04:34:48;;;;;;;7.30;2.53;;;11.00;99.90;;;;;;5000531;28;20089;-68
2021/10/21 04:37:15;;;;;;;4.80;2.33;;;11.00;99.90;;;;;;4998258;28;20500;-68
2021/10/21 04:39:42;;;;;;;3.58;1.67;;;11.00;99.90;;;;;;5001663;28;20141;-68
2021/10/21 04:42:09;;;;;;;8.95;2.17;;;11.00;99.90;;;;;;5002890;28;20448;-70
2021/10/21 04:44:36;;;;;;;4.80;2.22;;;10.90;99.90;;;;;;5002364;28;20127;-68
2021/10/21 04:47:03;;;;;;;7.10;2.47;;;11.00;99.90;;;;;;5006675;28;20066;-67
2021/10/21 04:49:30;;;;;;;6.53;1.95;;;11.00;99.90;;;;;;5002862;28;20112;-69
2021/10/21 04:51:57;;;;;;;12.30;2.72;;;11.00;99.90;;;;;;5001844;28;20129;-67
2021/10/21 04:54:24;;;;;;;5.93;1.42;;;10.90;99.90;;;;;;5003797;28;20124;-67
2021/10/21 04:56:50;;;;;;;9.00;2.20;;;10.90;99.90;;;;;;5000974;28;20092;-67
2021/10/21 04:59:17;;;;;;;5.70;2.08;;;10.90;99.90;;;;;;5001270;28;20046;-66
2021/10/21 05:01:44;;;;;;;6.78;2.40;;;10.90;99.90;;;;;;5004344;28;20065;-67
2021/10/21 05:04:11;;;;;;;7.53;2.55;;;10.90;99.90;;;;;;5005162;28;20101;-69
2021/10/21 05:06:38;;;;;;;8.18;1.88;;;10.90;99.90;;;;;;5001423;28;20152;-68
2021/10/21 05:09:05;;;;;;;6.40;2.58;;;10.90;99.90;;;;;;5002216;28;20133;-70
2021/10/21 05:11:32;;;;;;;7.32;2.90;;;10.90;99.90;;;;;;5001504;28;20131;-68
2021/10/21 05:13:59;;;;;;;7.38;2.42;;;10.90;99.90;;;;;;5002191;28;20085;-66
2021/10/21 05:16:26;;;;;;;7.57;2.58;;;10.90;99.90;;;;;;5005171;28;20444;-67
2021/10/21 05:18:52;;;;;;;4.97;2.92;;;10.90;99.90;;;;;;5001817;28;20048;-66
2021/10/21 05:21:19;;;;;;;4.45;2.15;;;10.90;99.90;;;;;;5001788;28;20985;-67
2021/10/21 05:23:46;;;;;;;7.60;3.03;;;10.80;99.90;;;;;;5003984;28;20080;-67
2021/10/21 05:26:13;;;;;;;12.45;3.90;;;10.90;99.90;;;;;;5002613;28;20069;-68
2021/10/21 05:28:40;;;;;;;7.57;2.88;;;10.90;99.90;;;;;;5001072;28;20042;-68
2021/10/21 05:31:07;;;;;;;4.30;2.92;;;10.90;99.90;;;;;;5007023;28;20057;-67
2021/10/21 05:33:37;;;;;;;8.45;3.97;;;10.90;99.90;;;;;;4996274;28;20129;-67
2021/10/21 05:36:04;;;;;;;6.95;3.45;;;10.90;99.90;;;;;;5002347;28;21221;-67
2021/10/21 05:38:31;;;;;;;9.82;2.97;;;10.90;99.90;;;;;;5000453;28;20073;-67
2021/10/21 05:40:59;;;;;;;9.77;4.45;;;10.90;99.90;;;;;;5001564;28;20046;-66
2021/10/21 05:43:26;;;;;;;6.47;4.18;;;10.90;99.90;;;;;;5004962;28;20428;-68
2021/10/21 05:45:53;;;;;;;9.70;3.40;;;10.90;99.90;;;;;;5003251;28;20038;-68
2021/10/21 05:48:20;;;;;;;10.55;3.85;;;11.00;99.90;;;;;;5003420;28;20057;-69
2021/10/21 05:50:48;;;;;;;6.85;2.88;;;10.90;99.90;;;;;;5000525;28;20054;-68
2021/10/21 05:53:15;;;;;;;7.47;3.53;;;11.00;99.90;;;;;;5003898;28;20499;-66
2021/10/21 05:55:41;;;;;;;13.60;4.30;;;11.00;99.90;;;;;;4999759;28;20054;-67
2021/10/21 05:58:12;;;;;;;6.65;2.95;;;10.90;99.90;;;;;;5001934;28;20061;-66
2021/10/21 06:00:39;;;;;;;9.60;3.42;;;10.90;99.90;;;;;;5000963;28;20100;-67
2021/10/21 06:03:06;;;;;;;5.63;2.80;;;10.90;99.90;;;;;;5000364;28;20038;-66
2021/10/21 06:05:33;;;;;;;8.57;2.78;;;10.90;99.90;;;;;;5003894;28;20465;-68
2021/10/21 06:08:00;;;;;;;7.03;2.95;;;10.90;99.90;;;;;;4997967;28;20034;-67
2021/10/21 06:10:27;;;;;;;10.65;2.78;;;10.90;99.90;;;;;;5000967;28;20046;-66
2021/10/21 06:12:57;;;;;;;4.22;1.83;;;10.80;99.90;;;;;;4989874;28;20729;-66
2021/10/21 06:15:24;;;;;;;8.95;3.15;;;10.90;99.90;;;;;;5007868;28;20401;-67
2021/10/21 06:17:51;;;;;;;7.53;3.47;;;10.90;99.90;;;;;;5005816;28;20107;-66
2021/10/21 06:20:18;;;;;;;10.95;2.55;;;10.90;99.90;;;;;;5004520;28;20058;-68
2021/10/21 06:22:45;;;;;;;7.63;2.08;;;11.00;99.90;;;;;;5004756;28;20100;-68
2021/10/21 06:25:13;;;;;;;6.85;2.42;;;11.00;99.90;;;;;;5005194;28;20042;-69
2021/10/21 06:27:40;;;;;;;4.95;2.47;;;11.00;99.90;;;;;;5006550;28;20050;-66
2021/10/21 06:30:07;;;;;;;10.80;3.17;;;11.00;99.90;;;;;;5002863;28;20130;-68
2021/10/21 06:32:36;;;;;;;7.68;2.78;;;11.00;99.90;;;;;;5003423;28;20463;-68
2021/10/21 06:35:03;;;;;;;11.35;3.20;;;10.90;99.90;;;;;;5002761;28;20049;-67
2021/10/21 06:37:31;;;;;;;6.68;1.55;;;11.00;99.90;;;;;;5002568;28;20062;-67
2021/10/21 06:39:57;;;;;;;9.10;4.05;;;11.00;99.90;;;;;;5006103;28;20065;-66
2021/10/21 06:42:24;;;;;;;10.05;3.83;;;11.00;99.90;;;;;;5006594;28;20173;-67
2021/10/21 06:44:52;;;;;;;11.63;2.97;;;11.00;99.90;;;;;;5002316;28;20117;-70
2021/10/21 06:47:18;;;;;;;7.93;3.10;;;11.00;99.90;;;;;;5006126;28;20096;-67
2021/10/21 06:49:45;;;;;;;15.90;3.58;;;11.00;99.90;;;;;;5008597;28;20077;-68
2021/10/21 06:52:12;;;;;;;7.28;3.53;;;11.00;99.90;;;;;;5004926;28;20054;-72
2021/10/21 06:54:39;;;;;;;6.05;3.35;;;11.00;99.90;;;;;;5002876;28;20140;-67
2021/10/21 06:57:07;;;;;;;10.52;3.45;;;11.00;99.90;;;;;;5006187;28;20066;-68
2021/10/21 06:59:33;;;;;;;7.60;3.58;;;10.90;99.90;;;;;;5001491;28;20521;-69
2021/10/21 07:02:00;;;;;;;8.60;4.05;;;11.00;99.90;;;;;;5004178;28;20403;-68
2021/10/21 07:04:29;;;;;;;13.98;3.70;;;10.90;99.90;;;;;;5004810;28;20168;-67
2021/10/21 07:06:59;;;;;;;12.40;3.28;;;11.00;99.90;;;;;;5002777;28;20050;-70
2021/10/21 07:09:26;;;;;;;9.52;3.28;;;11.00;99.90;;;;;;5001825;28;20046;-69
2021/10/21 07:12:13;;;;;;;9.55;3.22;;;10.90;99.90;;;;;;5000207;28;20494;-68
2021/10/21 07:14:39;;;;;;;9.45;3.83;;;10.90;99.90;;;;;;5002887;28;20143;-66
2021/10/21 07:17:06;;;;;;;9.57;3.65;;;11.00;99.90;;;;;;5003537;28;20108;-66
2021/10/21 07:19:33;;;;;;;10.10;3.65;;;10.90;99.90;;;;;;4998563;28;20379;-68
2021/10/21 07:22:00;;;;;;;13.25;5.10;;;10.90;99.90;;;;;;5005880;28;20470;-70
2021/10/21 07:24:28;;;;;;;12.43;4.40;;;10.90;99.90;;;;;;5005726;28;20073;-72
2021/10/21 07:26:55;;;;;;;8.95;3.40;;;11.00;99.90;;;;;;5002334;28;20547;-70
2021/10/21 07:29:21;;;;;;;12.30;6.47;;;11.00;99.90;;;;;;5002836;28;20125;-70
2021/10/21 07:31:48;;;;;;;15.73;4.90;;;11.00;99.90;;;;;;5002200;28;20061;-69
2021/10/21 07:34:15;;;;;;;6.15;3.97;;;11.00;99.90;;;;;;5001163;28;20038;-70
2021/10/21 07:36:42;;;;;;;8.95;3.92;;;11.10;99.90;;;;;;5004930;28;20651;-70
2021/10/21 07:39:09;;;;;;;8.80;3.55;;;11.10;99.90;;;;;;5005482;28;20062;-68
2021/10/21 07:41:36;;;;;;;7.53;3.92;;;11.20;99.90;;;;;;5005431;28;20085;-70
2021/10/21 07:44:03;;;;;;;17.13;5.32;;;11.30;99.90;;;;;;5005600;28;20076;-67
2021/10/21 07:46:31;;;;;;;11.77;5.25;;;11.40;99.90;;;;;;5006098;28;20468;-67
2021/10/21 07:48:58;;;;;;;16.40;3.80;;;11.40;99.90;;;;;;5000847;28;20096;-67
2021/10/21 07:51:26;;;;;;;12.88;4.55;;;11.50;99.90;;;;;;5005729;28;20112;-69
2021/10/21 07:53:53;;;;;;;12.07;5.07;;;11.50;99.90;;;;;;5003287;28;20058;-67
2021/10/21 07:56:20;;;;;;;13.23;4.18;;;11.60;99.90;;;;;;5004541;28;20073;-69
2021/10/21 07:58:47;;;;;;;13.23;5.18;;;11.70;99.90;;;;;;5002467;28;20103;-68
2021/10/21 08:01:15;;;;;;;13.63;5.78;;;11.70;99.90;;;;;;5000450;28;20536;-67
2021/10/21 08:03:42;;;;;;;13.07;6.38;;;11.80;99.90;;;;;;5003868;28;20057;-70
2021/10/21 08:06:09;;;;;;;15.10;6.03;;;11.90;99.90;;;;;;5005916;28;20077;-67
2021/10/21 08:08:36;;;;;;;9.65;5.68;;;11.90;99.90;;;;;;4999579;28;20125;-71
2021/10/21 08:11:03;;;;;;;13.43;5.18;;;12.00;99.90;;;;;;5005868;28;20085;-72
2021/10/21 08:13:30;;;;;;;15.00;6.05;;;12.10;99.90;;;;;;5001858;28;20136;-66
2021/10/21 08:15:58;;;;;;;12.05;5.97;;;12.10;99.90;;;;;;5002070;28;20148;-67
2021/10/21 08:18:25;;;;;;;6.85;5.60;;;12.10;99.90;;;;;;4998342;28;20522;-70
2021/10/21 08:20:52;;;;;;;15.68;5.30;;;12.10;99.90;;;;;;5008554;28;20050;-69
2021/10/21 08:23:19;;;;;;;9.73;5.07;;;12.20;99.90;;;;;;5006553;28;20396;-67
2021/10/21 08:25:46;;;;;;;14.07;4.15;;;12.20;99.90;;;;;;5002879;28;20049;-71
2021/10/21 08:28:14;;;;;;;15.65;5.38;;;12.30;99.90;;;;;;5004486;28;20132;-67
2021/10/21 08:30:43;;;;;;;12.27;4.13;;;12.30;99.90;;;;;;5001287;28;20069;-67
2021/10/21 08:33:14;;;;;;;16.33;4.18;;;12.30;99.90;;;;;;5003950;28;20041;-68
2021/10/21 08:35:41;;;;;;;8.05;3.85;;;12.30;99.90;;;;;;5005669;28;20077;-70
2021/10/21 08:38:08;;;;;;;7.20;3.90;;;12.30;99.90;;;;;;5002477;28;20119;-68
2021/10/21 08:40:36;;;;;;;4.15;2.45;;;12.30;99.90;;;;;;5003778;28;20050;-67
2021/10/21 08:43:05;;;;;;;7.15;3.22;;;12.30;99.90;;;;;;5000688;28;20045;-67
2021/10/21 08:45:33;;;;;;;11.27;3.72;;;12.30;99.90;;;;;;4998627;28;20050;-67
2021/10/21 08:48:04;;;;;;;12.73;3.13;;;12.30;99.90;;;;;;5004465;28;20974;-67
2021/10/21 08:50:34;;;;;;;10.50;3.13;;;12.30;99.90;;;;;;5003424;28;20424;-69
2021/10/21 08:53:03;;;;;;;5.93;3.15;;;12.30;99.90;;;;;;5008994;28;20483;-66
2021/10/21 08:55:30;;;;;;;10.43;4.28;;;12.30;99.90;;;;;;5008961;28;20111;-68
2021/10/21 08:57:57;;;;;;;8.32;3.35;;;12.30;99.90;;;;;;5002217;28;20061;-67
2021/10/21 09:00:24;;;;;;;8.18;3.88;;;12.30;99.90;;;;;;5000128;28;20042;-67
2021/10/21 09:08:02;;;;;;;8.02;3.22;;;12.20;99.90;;;;;;5003494;28;20054;-72
2021/10/21 09:10:30;;;;;;;9.70;4.03;;;12.20;99.90;;;;;;5015204;28;20049;-67
2021/10/21 09:12:59;;;;;;;10.93;3.95;;;12.10;99.90;;;;;;4997900;28;20142;-69
2021/10/21 09:15:27;;;;;;;17.15;4.28;;;12.10;99.90;;;;;;5000941;28;20053;-68
2021/10/21 09:17:55;;;;;;;5.32;2.72;;;12.10;99.90;;;;;;5004290;28;20037;-68
2021/10/21 09:20:24;;;;;;;8.02;4.10;;;12.00;99.90;;;;;;5004143;28;20104;-69
2021/10/21 09:22:56;;;;;;;12.82;4.05;;;12.10;99.90;;;;;;5000355;28;20057;-67
2021/10/21 09:25:27;;;;;;;12.25;3.90;;;12.10;99.90;;;;;;5004014;28;20100;-67
2021/10/21 09:27:56;;;;;;;6.07;3.55;;;12.10;99.90;;;;;;5001497;28;20077;-68
2021/10/21 09:30:28;;;;;;;10.77;2.97;;;12.10;99.90;;;;;;4998393;28;20054;-66
2021/10/21 09:33:01;;;;;;;8.88;3.47;;;12.10;99.90;;;;;;5000640;28;20449;-71
2021/10/21 09:35:29;;;;;;;15.07;5.90;;;12.20;99.90;;;;;;5003564;28;20486;-69
2021/10/21 09:37:56;;;;;;;10.00;4.90;;;12.30;99.90;;;;;;5002059;28;20128;-69
2021/10/21 09:40:29;;;;;;;10.90;5.10;;;12.20;99.90;;;;;;5000935;28;20077;-68
2021/10/21 09:43:07;;;;;;;8.95;4.30;;;12.20;99.90;;;;;;4995510;28;20069;-67
2021/10/21 09:45:37;;;;;;;8.77;3.88;;;12.20;99.90;;;;;;5002182;28;20108;-67
2021/10/21 09:48:05;;;;;;;14.77;3.83;;;12.10;99.90;;;;;;5001085;28;20047;-68
2021/10/21 09:50:39;;;;;;;6.40;3.05;;;12.10;99.90;;;;;;4990152;28;20038;-69
2021/10/21 09:53:24;;;;;;;8.68;4.25;;;12.10;99.90;;;;;;5001619;28;20054;-71
2021/10/21 09:56:08;;;;;;;8.27;3.53;;;12.00;99.90;;;;;;5000701;28;20073;-66
2021/10/21 09:58:36;;;;;;;8.57;4.00;;;12.00;99.90;;;;;;4996385;28;20073;-71
2021/10/21 10:01:09;;;;;;;7.35;3.90;;;11.90;99.90;;;;;;5001895;28;20042;-66
2021/10/21 10:03:46;;;;;;;14.48;5.35;;;11.90;99.90;;;;;;5002368;28;20423;-72
2021/10/21 10:06:18;;;;;;;7.57;3.67;;;11.90;99.90;;;;;;4996932;28;20115;-67
2021/10/21 10:08:45;;;;;;;6.50;4.60;;;11.90;99.90;;;;;;4999400;28;20096;-68
2021/10/21 10:11:19;;;;;;;6.78;3.80;;;11.90;99.90;;;;;;5003445;28;20050;-67
2021/10/21 10:13:51;;;;;;;9.02;3.50;;;11.90;99.90;;;;;;5007338;28;20050;-69
2021/10/21 10:16:18;;;;;;;11.07;5.15;;;11.80;99.90;;;;;;5010807;28;20037;-68
2021/10/21 10:18:46;;;;;;;13.77;4.45;;;11.80;99.90;;;;;;5005012;28;20145;-69
2021/10/21 10:21:22;;;;;;;9.20;4.30;;;11.80;99.90;;;;;;5008900;28;20050;-68
2021/10/21 10:24:12;;;;;;;8.10;4.43;;;11.80;99.90;;;;;;4991814;28;20132;-70
2021/10/21 10:26:43;;;;;;;9.80;3.42;;;11.70;99.90;;;;;;4994143;28;20042;-70
2021/10/21 10:29:13;;;;;;;15.82;4.90;;;11.70;99.90;;;;;;5001932;28;20041;-68
2021/10/21 10:31:42;;;;;;;11.05;3.75;;;11.70;99.90;;;;;;5000782;28;20062;-67
2021/10/21 10:34:30;;;;;;;12.63;4.50;;;11.70;99.90;;;;;;5003232;28;20542;-68
2021/10/21 10:37:17;;;;;;;10.65;4.47;;;11.60;99.90;;;;;;4998173;28;20498;-68
2021/10/21 10:39:48;;;;;;;8.10;5.28;;;11.60;99.90;;;;;;5002054;28;20644;-67
2021/10/21 10:42:17;;;;;;;6.82;4.97;;;11.50;99.90;;;;;;5003108;28;20073;-68
2021/10/21 10:45:01;;;;;;;9.07;4.90;;;11.50;99.90;;;;;;4976492;28;20169;-68
2021/10/21 10:47:43;;;;;;;10.27;5.50;;;11.50;99.90;;;;;;5007517;28;20037;-67
2021/10/21 10:50:26;;;;;;;7.95;4.03;;;11.50;99.90;;;;;;5001522;28;20133;-70
2021/10/21 10:52:59;;;;;;;5.60;4.78;;;11.40;99.90;;;;;;5002986;28;20460;-69
2021/10/21 10:55:52;;;;;;;10.82;4.07;;;11.40;99.90;;;;;;4996002;28;20824;-67
2021/10/21 10:58:29;;;;;;;9.85;3.92;;;11.40;99.90;;;;;;5004161;28;20042;-67
2021/10/21 11:01:01;;;;;;;4.03;3.53;;;11.40;99.90;;;;;;4969665;28;20137;-67
2021/10/21 11:03:44;;;;;;;5.78;3.90;;;11.30;99.90;;;;;;5002718;28;20057;-69
2021/10/21 11:06:17;;;;;;;5.28;4.03;;;11.30;99.90;;;;;;5005996;28;20639;-67
2021/10/21 11:09:04;;;;;;;4.43;3.17;;;11.20;99.90;;;;;;5004256;28;20049;-69
2021/10/21 11:11:49;;;;;;;4.57;3.97;;;11.20;99.90;;;;;;5005151;28;20108;-70
2021/10/21 11:14:31;;;;;;;7.60;4.03;;;11.20;99.90;;;;;;5006241;28;20462;-67
2021/10/21 11:16:58;;;;;;;9.13;3.75;;;11.20;99.90;;;;;;5002958;28;20054;-67
2021/10/21 11:22:31;;;;;;;4.30;3.35;;;11.30;99.90;;;;;;5006940;28;20041;-68
2021/10/21 11:25:03;;;;;;;2.60;2.38;;;11.20;99.90;;;;;;5003044;28;20059;-67
2021/10/21 11:27:34;;;;;;;5.35;2.67;;;11.20;99.90;;;;;;5006076;28;20139;-67
2021/10/21 11:30:03;;;;;;;;;;;11.20;99.90;;;;;;5002317;28;20123;-70
2021/10/21 11:32:33;;;;;;;3.55;3.08;;;11.40;99.90;;;;;;5004578;28;19957;-67
2021/10/21 11:35:04;;;;;;;3.13;2.85;;;11.40;99.90;;;;;;5004476;28;20096;-72
2021/10/21 11:37:39;;;;;;;5.15;3.60;;;11.50;99.90;;;;;;5002902;28;20054;-69
2021/10/21 11:40:10;;;;;;;5.00;3.90;;;11.60;99.90;;;;;;5004394;28;20069;-67
2021/10/21 11:42:37;;;;;;;5.70;4.68;;;11.70;99.90;;;;;;5002705;28;20518;-70
2021/10/21 11:45:09;;;;;;;5.85;4.57;;;11.70;99.90;;;;;;5006610;28;20069;-67
2021/10/21 11:47:38;;;;;;;8.82;5.07;;;11.80;99.90;;;;;;5006256;28;20381;-72
2021/10/21 11:50:06;;;;;;;9.38;5.32;;;11.90;99.90;;;;;;5003138;28;20503;-67
2021/10/21 11:52:44;;;;;;;9.32;4.15;;;12.00;99.90;;;;;;4988188;28;20045;-67
2021/10/21 11:55:20;;;;;;;15.63;6.72;;;12.10;99.90;;;;;;5003021;28;20526;-70
2021/10/21 11:57:48;;;;;;;9.90;4.80;;;12.40;99.90;;;;;;5001987;28;20349;-67
2021/10/21 12:00:24;;;;;;;5.80;3.40;;;12.60;99.90;;;;;;5000033;28;20064;-73
2021/10/21 12:02:58;;;;;;;12.02;5.13;;;12.70;99.90;;;;;;5004278;28;20124;-67
2021/10/21 12:05:33;;;;;;;7.82;2.83;;;12.80;99.90;;;;;;4997944;28;21007;-69
2021/10/21 12:08:01;;;;;;;9.70;3.35;;;12.90;99.90;;;;;;5003678;28;20127;-71
2021/10/21 12:10:29;;;;;;;10.63;6.22;;;12.80;99.90;;;;;;5003225;28;20050;-69
2021/10/21 12:12:57;;;;;;;7.25;3.38;;;12.70;99.90;;;;;;5002153;28;20033;-68
2021/10/21 12:15:27;;;;;;;9.75;3.10;;;12.50;99.90;;;;;;5002285;28;20038;-68
2021/10/21 12:17:55;;;;;;;7.75;2.33;;;12.40;99.90;;;;;;5003961;28;20076;-68
2021/10/21 12:20:30;;;;;;;10.13;2.65;;;12.30;99.90;;;;;;5003195;28;20081;-71
2021/10/21 12:22:57;;;;;;;9.75;1.90;;;12.30;99.90;;;;;;5001110;28;20061;-68
2021/10/21 12:25:32;;;;;;;6.53;2.65;;;12.20;99.90;;;;;;5004198;28;20082;-69
2021/10/21 12:28:00;;;;;;;10.15;2.38;;;12.20;99.90;;;;;;4986386;28;20042;-70
2021/10/21 12:30:27;;;;;;;6.07;2.33;;;12.20;99.90;;;;;;5004230;28;20519;-68
2021/10/21 12:33:18;;;;;;;5.22;2.67;;;12.20;99.90;;;;;;5000340;28;20085;-68
2021/10/21 12:35:58;;;;;;;6.78;2.50;;;12.30;99.90;;;;;;5001352;28;20740;-68
2021/10/21 12:38:24;;;;;;;9.35;2.70;;;12.20;99.90;;;;;;5003484;28;20175;-68
2021/10/21 12:41:05;;;;;;;5.38;2.10;;;12.10;99.90;;;;;;4998887;28;20156;-68
2021/10/21 12:43:33;;;;;;;7.55;2.67;;;12.10;99.90;;;;;;5003556;28;20120;-68
2021/10/21 12:46:01;;;;;;;8.88;2.60;;;11.90;99.90;;;;;;5002742;28;20069;-69
2021/10/21 12:48:34;;;;;;;7.38;2.20;;;11.90;99.90;;;;;;4998163;28;20041;-68
2021/10/21 12:51:15;;;;;;;5.15;1.80;;;11.80;99.90;;;;;;5001414;28;20080;-68
2021/10/21 12:53:52;;;;;;;4.25;1.38;;;11.70;99.90;;;;;;5001609;28;20049;-69
2021/10/21 12:56:25;;;;;;;5.18;1.58;;;11.80;99.90;;;;;;5002077;28;20133;-67
2021/10/21 12:59:03;;;;;;;10.88;2.50;;;11.70;99.90;;;;;;5001419;28;20057;-67
2021/10/21 13:01:52;;;;;;;8.82;2.63;;;11.70;99.90;;;;;;5002321;28;20053;-67